sensor_id;sensor_type;location;lat;lon;timestamp;P1;durP1;ratioP1;P2;durP2;ratioP2
18072;SDS011;9161;47.348;9.648;2022-12-11T00:04:43;43.00;;;18.53;;
18072;SDS011;9161;47.348;9.648;2022-12-11T00:09:27;43.33;;;19.03;;
18072;SDS011;9161;47.348;9.648;2022-12-11T00:14:11;45.17;;;19.83;;
18072;SDS011;9161;47.348;9.648;2022-12-11T00:18:57;46.33;;;20.23;;
18072;SDS011;9161;47.348;9.648;2022-12-11T00:23:41;45.67;;;20.23;;
18072;SDS011;9161;47.348;9.648;2022-12-11T00:28:25;43.27;;;19.07;;
18072;SDS011;9161;47.348;9.648;2022-12-11T00:33:10;44.57;;;19.53;;
18072;SDS011;9161;47.348;9.648;2022-12-11T00:37:56;42.20;;;18.67;;
18072;SDS011;9161;47.348;9.648;2022-12-11T00:42:40;46.47;;;18.90;;
18072;SDS011;9161;47.348;9.648;2022-12-11T00:47:23;44.93;;;19.67;;
18072;SDS011;9161;47.348;9.648;2022-12-11T00:52:07;43.33;;;18.73;;
18072;SDS011;9161;47.348;9.648;2022-12-11T00:56:52;42.63;;;19.03;;
18072;SDS011;9161;47.348;9.648;2022-12-11T01:01:37;44.37;;;19.70;;
18072;SDS011;9161;47.348;9.648;2022-12-11T01:06:22;41.00;;;18.47;;
18072;SDS011;9161;47.348;9.648;2022-12-11T01:11:08;40.70;;;19.80;;
18072;SDS011;9161;47.348;9.648;2022-12-11T01:15:55;44.30;;;19.90;;
18072;SDS011;9161;47.348;9.648;2022-12-11T01:20:40;43.40;;;20.57;;
18072;SDS011;9161;47.348;9.648;2022-12-11T01:25:25;45.70;;;19.73;;
18072;SDS011;9161;47.348;9.648;2022-12-11T01:30:09;48.40;;;19.80;;
18072;SDS011;9161;47.348;9.648;2022-12-11T01:34:56;44.53;;;18.53;;
18072;SDS011;9161;47.348;9.648;2022-12-11T01:39:39;43.67;;;19.03;;
18072;SDS011;9161;47.348;9.648;2022-12-11T01:49:44;40.20;;;18.13;;
18072;SDS011;9161;47.348;9.648;2022-12-11T01:54:29;43.73;;;18.93;;
18072;SDS011;9161;47.348;9.648;2022-12-11T01:59:13;43.93;;;19.80;;
18072;SDS011;9161;47.348;9.648;2022-12-11T02:03:59;41.90;;;17.80;;
18072;SDS011;9161;47.348;9.648;2022-12-11T02:08:44;40.67;;;18.80;;
18072;SDS011;9161;47.348;9.648;2022-12-11T02:13:31;37.47;;;17.37;;
18072;SDS011;9161;47.348;9.648;2022-12-11T02:18:23;44.90;;;18.30;;
18072;SDS011;9161;47.348;9.648;2022-12-11T02:23:18;42.67;;;19.50;;
18072;SDS011;9161;47.348;9.648;2022-12-11T02:28:24;42.70;;;18.30;;
18072;SDS011;9161;47.348;9.648;2022-12-11T02:33:12;42.50;;;17.73;;
18072;SDS011;9161;47.348;9.648;2022-12-11T02:37:58;40.27;;;18.10;;
18072;SDS011;9161;47.348;9.648;2022-12-11T02:42:46;40.63;;;18.53;;
18072;SDS011;9161;47.348;9.648;2022-12-11T02:47:33;38.97;;;18.40;;
18072;SDS011;9161;47.348;9.648;2022-12-11T02:52:19;40.63;;;18.27;;
18072;SDS011;9161;47.348;9.648;2022-12-11T02:57:07;45.23;;;18.97;;
18072;SDS011;9161;47.348;9.648;2022-12-11T03:01:53;43.23;;;18.83;;
18072;SDS011;9161;47.348;9.648;2022-12-11T03:06:40;42.90;;;18.60;;
18072;SDS011;9161;47.348;9.648;2022-12-11T03:11:27;43.80;;;18.77;;
18072;SDS011;9161;47.348;9.648;2022-12-11T03:16:11;40.23;;;17.53;;
18072;SDS011;9161;47.348;9.648;2022-12-11T03:21:03;39.90;;;17.97;;
18072;SDS011;9161;47.348;9.648;2022-12-11T03:25:52;41.30;;;17.20;;
18072;SDS011;9161;47.348;9.648;2022-12-11T03:30:38;42.63;;;17.83;;
18072;SDS011;9161;47.348;9.648;2022-12-11T03:35:24;41.53;;;18.50;;
18072;SDS011;9161;47.348;9.648;2022-12-11T03:40:11;37.07;;;17.03;;
18072;SDS011;9161;47.348;9.648;2022-12-11T03:44:59;36.87;;;16.83;;
18072;SDS011;9161;47.348;9.648;2022-12-11T03:49:46;38.07;;;16.63;;
18072;SDS011;9161;47.348;9.648;2022-12-11T03:54:32;36.33;;;16.07;;
18072;SDS011;9161;47.348;9.648;2022-12-11T03:59:16;40.83;;;17.13;;
18072;SDS011;9161;47.348;9.648;2022-12-11T04:04:01;42.43;;;18.07;;
18072;SDS011;9161;47.348;9.648;2022-12-11T04:08:45;42.87;;;18.40;;
18072;SDS011;9161;47.348;9.648;2022-12-11T04:13:28;43.03;;;17.07;;
18072;SDS011;9161;47.348;9.648;2022-12-11T04:18:12;42.93;;;19.23;;
18072;SDS011;9161;47.348;9.648;2022-12-11T04:23:14;47.77;;;20.23;;
18072;SDS011;9161;47.348;9.648;2022-12-11T04:28:17;53.40;;;19.63;;
18072;SDS011;9161;47.348;9.648;2022-12-11T04:33:00;48.67;;;20.40;;
18072;SDS011;9161;47.348;9.648;2022-12-11T04:37:44;38.87;;;17.00;;
18072;SDS011;9161;47.348;9.648;2022-12-11T04:42:29;36.83;;;16.77;;
18072;SDS011;9161;47.348;9.648;2022-12-11T04:47:12;40.23;;;17.23;;
18072;SDS011;9161;47.348;9.648;2022-12-11T04:51:56;41.57;;;16.67;;
18072;SDS011;9161;47.348;9.648;2022-12-11T04:56:39;42.20;;;17.20;;
18072;SDS011;9161;47.348;9.648;2022-12-11T05:01:24;44.30;;;18.13;;
18072;SDS011;9161;47.348;9.648;2022-12-11T05:06:08;40.77;;;17.27;;
18072;SDS011;9161;47.348;9.648;2022-12-11T05:10:55;40.63;;;17.00;;
18072;SDS011;9161;47.348;9.648;2022-12-11T05:15:39;43.70;;;18.97;;
18072;SDS011;9161;47.348;9.648;2022-12-11T05:20:24;41.77;;;17.70;;
18072;SDS011;9161;47.348;9.648;2022-12-11T05:25:08;46.20;;;19.07;;
18072;SDS011;9161;47.348;9.648;2022-12-11T05:29:52;45.23;;;18.53;;
18072;SDS011;9161;47.348;9.648;2022-12-11T05:34:40;40.97;;;17.90;;
18072;SDS011;9161;47.348;9.648;2022-12-11T05:39:24;47.90;;;19.93;;
18072;SDS011;9161;47.348;9.648;2022-12-11T05:44:09;49.17;;;21.40;;
18072;SDS011;9161;47.348;9.648;2022-12-11T05:48:55;45.80;;;20.83;;
18072;SDS011;9161;47.348;9.648;2022-12-11T05:53:40;44.20;;;18.23;;
18072;SDS011;9161;47.348;9.648;2022-12-11T05:58:26;43.43;;;18.63;;
18072;SDS011;9161;47.348;9.648;2022-12-11T06:03:10;46.20;;;19.27;;
18072;SDS011;9161;47.348;9.648;2022-12-11T06:07:54;42.50;;;18.30;;
18072;SDS011;9161;47.348;9.648;2022-12-11T06:12:38;37.27;;;16.37;;
18072;SDS011;9161;47.348;9.648;2022-12-11T06:17:23;37.83;;;16.07;;
18072;SDS011;9161;47.348;9.648;2022-12-11T06:22:06;37.23;;;16.97;;
18072;SDS011;9161;47.348;9.648;2022-12-11T06:26:50;33.77;;;14.17;;
18072;SDS011;9161;47.348;9.648;2022-12-11T06:31:34;32.13;;;14.77;;
18072;SDS011;9161;47.348;9.648;2022-12-11T06:36:20;33.90;;;15.43;;
18072;SDS011;9161;47.348;9.648;2022-12-11T06:41:04;34.03;;;15.73;;
18072;SDS011;9161;47.348;9.648;2022-12-11T06:45:49;35.83;;;16.10;;
18072;SDS011;9161;47.348;9.648;2022-12-11T06:50:33;33.07;;;16.20;;
18072;SDS011;9161;47.348;9.648;2022-12-11T06:55:21;34.67;;;16.43;;
18072;SDS011;9161;47.348;9.648;2022-12-11T07:00:05;37.80;;;16.37;;
18072;SDS011;9161;47.348;9.648;2022-12-11T07:04:49;36.73;;;16.77;;
18072;SDS011;9161;47.348;9.648;2022-12-11T07:09:36;30.50;;;13.70;;
18072;SDS011;9161;47.348;9.648;2022-12-11T07:14:22;29.03;;;12.53;;
18072;SDS011;9161;47.348;9.648;2022-12-11T07:19:06;29.03;;;12.63;;
18072;SDS011;9161;47.348;9.648;2022-12-11T07:23:50;25.47;;;9.30;;
18072;SDS011;9161;47.348;9.648;2022-12-11T07:28:33;35.87;;;16.20;;
18072;SDS011;9161;47.348;9.648;2022-12-11T07:33:19;32.80;;;15.23;;
18072;SDS011;9161;47.348;9.648;2022-12-11T07:38:03;29.90;;;14.27;;
18072;SDS011;9161;47.348;9.648;2022-12-11T07:42:47;31.13;;;13.33;;
18072;SDS011;9161;47.348;9.648;2022-12-11T07:47:30;26.73;;;12.57;;
18072;SDS011;9161;47.348;9.648;2022-12-11T07:52:16;33.17;;;14.63;;
18072;SDS011;9161;47.348;9.648;2022-12-11T07:57:00;26.70;;;12.40;;
18072;SDS011;9161;47.348;9.648;2022-12-11T08:01:43;27.73;;;12.20;;
18072;SDS011;9161;47.348;9.648;2022-12-11T08:06:27;29.30;;;13.33;;
18072;SDS011;9161;47.348;9.648;2022-12-11T08:11:13;28.87;;;12.90;;
18072;SDS011;9161;47.348;9.648;2022-12-11T08:15:57;29.13;;;13.27;;
18072;SDS011;9161;47.348;9.648;2022-12-11T08:20:41;31.07;;;13.87;;
18072;SDS011;9161;47.348;9.648;2022-12-11T08:25:24;32.10;;;14.13;;
18072;SDS011;9161;47.348;9.648;2022-12-11T08:30:10;33.13;;;14.77;;
18072;SDS011;9161;47.348;9.648;2022-12-11T08:34:54;30.27;;;14.13;;
18072;SDS011;9161;47.348;9.648;2022-12-11T08:39:38;29.90;;;13.73;;
18072;SDS011;9161;47.348;9.648;2022-12-11T08:44:21;31.13;;;13.80;;
18072;SDS011;9161;47.348;9.648;2022-12-11T08:49:08;30.97;;;14.60;;
18072;SDS011;9161;47.348;9.648;2022-12-11T08:53:53;34.20;;;15.13;;
18072;SDS011;9161;47.348;9.648;2022-12-11T08:58:38;31.40;;;13.93;;
18072;SDS011;9161;47.348;9.648;2022-12-11T09:03:22;29.40;;;13.50;;
18072;SDS011;9161;47.348;9.648;2022-12-11T09:08:07;30.80;;;14.20;;
18072;SDS011;9161;47.348;9.648;2022-12-11T09:12:51;28.60;;;13.50;;
18072;SDS011;9161;47.348;9.648;2022-12-11T09:17:35;28.37;;;13.53;;
18072;SDS011;9161;47.348;9.648;2022-12-11T09:22:19;24.97;;;12.63;;
18072;SDS011;9161;47.348;9.648;2022-12-11T09:27:04;25.10;;;12.17;;
18072;SDS011;9161;47.348;9.648;2022-12-11T09:31:49;24.37;;;12.20;;
18072;SDS011;9161;47.348;9.648;2022-12-11T09:36:33;20.63;;;10.37;;
18072;SDS011;9161;47.348;9.648;2022-12-11T09:41:29;19.00;;;10.57;;
18072;SDS011;9161;47.348;9.648;2022-12-11T09:46:18;20.77;;;11.33;;
18072;SDS011;9161;47.348;9.648;2022-12-11T09:51:09;20.70;;;10.57;;
18072;SDS011;9161;47.348;9.648;2022-12-11T09:55:59;16.83;;;10.20;;
18072;SDS011;9161;47.348;9.648;2022-12-11T10:00:50;17.37;;;10.87;;
18072;SDS011;9161;47.348;9.648;2022-12-11T10:05:44;16.33;;;10.40;;
18072;SDS011;9161;47.348;9.648;2022-12-11T10:10:35;17.07;;;9.97;;
18072;SDS011;9161;47.348;9.648;2022-12-11T10:15:27;16.43;;;9.57;;
18072;SDS011;9161;47.348;9.648;2022-12-11T10:20:19;15.07;;;9.17;;
18072;SDS011;9161;47.348;9.648;2022-12-11T10:25:13;15.20;;;8.73;;
18072;SDS011;9161;47.348;9.648;2022-12-11T10:30:11;15.70;;;9.47;;
18072;SDS011;9161;47.348;9.648;2022-12-11T10:35:01;16.77;;;9.30;;
18072;SDS011;9161;47.348;9.648;2022-12-11T10:39:47;15.47;;;8.80;;
18072;SDS011;9161;47.348;9.648;2022-12-11T10:44:32;14.80;;;8.53;;
18072;SDS011;9161;47.348;9.648;2022-12-11T10:49:20;15.70;;;8.47;;
18072;SDS011;9161;47.348;9.648;2022-12-11T10:54:06;14.93;;;8.13;;
18072;SDS011;9161;47.348;9.648;2022-12-11T10:58:59;14.47;;;8.70;;
18072;SDS011;9161;47.348;9.648;2022-12-11T11:03:52;15.00;;;8.90;;
18072;SDS011;9161;47.348;9.648;2022-12-11T11:08:39;13.80;;;8.63;;
18072;SDS011;9161;47.348;9.648;2022-12-11T11:13:25;13.00;;;8.80;;
18072;SDS011;9161;47.348;9.648;2022-12-11T11:18:10;12.80;;;8.87;;
18072;SDS011;9161;47.348;9.648;2022-12-11T11:23:00;13.93;;;9.27;;
18072;SDS011;9161;47.348;9.648;2022-12-11T11:27:47;12.30;;;8.50;;
18072;SDS011;9161;47.348;9.648;2022-12-11T11:32:35;12.67;;;8.77;;
18072;SDS011;9161;47.348;9.648;2022-12-11T11:37:25;12.93;;;8.80;;
18072;SDS011;9161;47.348;9.648;2022-12-11T11:42:16;14.67;;;8.77;;
18072;SDS011;9161;47.348;9.648;2022-12-11T11:47:09;12.93;;;8.53;;
18072;SDS011;9161;47.348;9.648;2022-12-11T11:51:58;15.60;;;8.93;;
18072;SDS011;9161;47.348;9.648;2022-12-11T11:56:47;13.27;;;8.20;;
18072;SDS011;9161;47.348;9.648;2022-12-11T12:01:35;15.67;;;8.73;;
18072;SDS011;9161;47.348;9.648;2022-12-11T12:06:23;14.70;;;8.00;;
18072;SDS011;9161;47.348;9.648;2022-12-11T12:11:17;13.97;;;7.90;;
18072;SDS011;9161;47.348;9.648;2022-12-11T12:16:08;11.37;;;6.73;;
18072;SDS011;9161;47.348;9.648;2022-12-11T12:21:21;13.33;;;8.10;;
18072;SDS011;9161;47.348;9.648;2022-12-11T12:26:13;11.60;;;7.13;;
18072;SDS011;9161;47.348;9.648;2022-12-11T12:31:10;9.83;;;6.60;;
18072;SDS011;9161;47.348;9.648;2022-12-11T12:36:05;9.63;;;6.87;;
18072;SDS011;9161;47.348;9.648;2022-12-11T12:40:59;10.57;;;7.10;;
18072;SDS011;9161;47.348;9.648;2022-12-11T12:45:50;8.60;;;6.27;;
18072;SDS011;9161;47.348;9.648;2022-12-11T12:50:41;9.18;;;6.85;;
18072;SDS011;9161;47.348;9.648;2022-12-11T12:55:28;9.18;;;6.65;;
18072;SDS011;9161;47.348;9.648;2022-12-11T13:00:25;8.02;;;5.63;;
18072;SDS011;9161;47.348;9.648;2022-12-11T13:05:17;8.25;;;5.90;;
18072;SDS011;9161;47.348;9.648;2022-12-11T13:10:04;8.82;;;6.05;;
18072;SDS011;9161;47.348;9.648;2022-12-11T13:15:20;8.75;;;5.97;;
18072;SDS011;9161;47.348;9.648;2022-12-11T13:20:12;9.52;;;5.78;;
18072;SDS011;9161;47.348;9.648;2022-12-11T13:25:00;7.83;;;5.80;;
18072;SDS011;9161;47.348;9.648;2022-12-11T13:30:03;7.93;;;5.67;;
18072;SDS011;9161;47.348;9.648;2022-12-11T13:34:53;9.77;;;6.23;;
18072;SDS011;9161;47.348;9.648;2022-12-11T13:39:44;7.37;;;5.40;;
18072;SDS011;9161;47.348;9.648;2022-12-11T13:44:31;7.87;;;5.70;;
18072;SDS011;9161;47.348;9.648;2022-12-11T13:49:21;9.00;;;5.57;;
18072;SDS011;9161;47.348;9.648;2022-12-11T13:54:13;10.37;;;6.77;;
18072;SDS011;9161;47.348;9.648;2022-12-11T13:59:00;11.57;;;6.93;;
18072;SDS011;9161;47.348;9.648;2022-12-11T14:03:46;11.20;;;7.37;;
18072;SDS011;9161;47.348;9.648;2022-12-11T14:09:13;13.13;;;7.50;;
18072;SDS011;9161;47.348;9.648;2022-12-11T14:14:02;12.37;;;7.30;;
18072;SDS011;9161;47.348;9.648;2022-12-11T14:18:51;11.13;;;7.07;;
18072;SDS011;9161;47.348;9.648;2022-12-11T14:23:36;12.13;;;7.17;;
18072;SDS011;9161;47.348;9.648;2022-12-11T14:28:21;13.07;;;7.20;;
18072;SDS011;9161;47.348;9.648;2022-12-11T14:33:10;13.30;;;7.40;;
18072;SDS011;9161;47.348;9.648;2022-12-11T14:37:54;13.00;;;7.17;;
18072;SDS011;9161;47.348;9.648;2022-12-11T14:42:42;17.17;;;7.97;;
18072;SDS011;9161;47.348;9.648;2022-12-11T14:47:30;15.53;;;8.70;;
18072;SDS011;9161;47.348;9.648;2022-12-11T14:52:20;19.90;;;9.97;;
18072;SDS011;9161;47.348;9.648;2022-12-11T14:57:11;17.47;;;8.50;;
18072;SDS011;9161;47.348;9.648;2022-12-11T15:02:16;18.70;;;9.00;;
18072;SDS011;9161;47.348;9.648;2022-12-11T15:07:15;17.40;;;8.03;;
18072;SDS011;9161;47.348;9.648;2022-12-11T15:12:09;18.47;;;8.70;;
18072;SDS011;9161;47.348;9.648;2022-12-11T15:16:55;21.50;;;9.83;;
18072;SDS011;9161;47.348;9.648;2022-12-11T15:21:41;20.17;;;9.00;;
18072;SDS011;9161;47.348;9.648;2022-12-11T15:26:31;20.93;;;9.37;;
18072;SDS011;9161;47.348;9.648;2022-12-11T15:31:24;19.20;;;8.67;;
18072;SDS011;9161;47.348;9.648;2022-12-11T15:36:18;18.53;;;8.80;;
18072;SDS011;9161;47.348;9.648;2022-12-11T15:41:10;17.30;;;8.20;;
18072;SDS011;9161;47.348;9.648;2022-12-11T15:45:56;18.37;;;8.07;;
18072;SDS011;9161;47.348;9.648;2022-12-11T15:50:43;15.43;;;7.07;;
18072;SDS011;9161;47.348;9.648;2022-12-11T15:55:29;13.57;;;6.53;;
18072;SDS011;9161;47.348;9.648;2022-12-11T16:00:16;16.20;;;6.47;;
18072;SDS011;9161;47.348;9.648;2022-12-11T16:05:06;14.30;;;6.37;;
18072;SDS011;9161;47.348;9.648;2022-12-11T16:09:53;14.90;;;6.40;;
18072;SDS011;9161;47.348;9.648;2022-12-11T16:14:38;14.60;;;6.40;;
18072;SDS011;9161;47.348;9.648;2022-12-11T16:19:24;15.10;;;7.27;;
18072;SDS011;9161;47.348;9.648;2022-12-11T16:24:09;16.50;;;7.63;;
18072;SDS011;9161;47.348;9.648;2022-12-11T16:28:55;17.37;;;7.70;;
18072;SDS011;9161;47.348;9.648;2022-12-11T16:33:41;15.93;;;7.40;;
18072;SDS011;9161;47.348;9.648;2022-12-11T16:38:25;16.33;;;7.63;;
18072;SDS011;9161;47.348;9.648;2022-12-11T16:43:09;17.77;;;8.03;;
18072;SDS011;9161;47.348;9.648;2022-12-11T16:47:55;16.97;;;7.47;;
18072;SDS011;9161;47.348;9.648;2022-12-11T16:52:42;21.73;;;8.07;;
18072;SDS011;9161;47.348;9.648;2022-12-11T16:57:26;20.10;;;8.13;;
18072;SDS011;9161;47.348;9.648;2022-12-11T17:02:10;23.33;;;9.77;;
18072;SDS011;9161;47.348;9.648;2022-12-11T17:06:56;23.47;;;10.10;;
18072;SDS011;9161;47.348;9.648;2022-12-11T17:11:40;29.07;;;12.70;;
18072;SDS011;9161;47.348;9.648;2022-12-11T17:16:26;27.83;;;10.73;;
18072;SDS011;9161;47.348;9.648;2022-12-11T17:21:12;26.20;;;10.70;;
18072;SDS011;9161;47.348;9.648;2022-12-11T17:26:00;18.60;;;8.87;;
18072;SDS011;9161;47.348;9.648;2022-12-11T17:30:45;21.03;;;8.90;;
18072;SDS011;9161;47.348;9.648;2022-12-11T17:35:31;19.07;;;9.10;;
18072;SDS011;9161;47.348;9.648;2022-12-11T17:40:17;25.13;;;10.23;;
18072;SDS011;9161;47.348;9.648;2022-12-11T17:45:05;31.47;;;12.77;;
18072;SDS011;9161;47.348;9.648;2022-12-11T17:49:55;28.87;;;12.63;;
18072;SDS011;9161;47.348;9.648;2022-12-11T17:54:40;32.90;;;13.33;;
18072;SDS011;9161;47.348;9.648;2022-12-11T17:59:25;29.53;;;12.83;;
18072;SDS011;9161;47.348;9.648;2022-12-11T18:04:12;32.23;;;12.37;;
18072;SDS011;9161;47.348;9.648;2022-12-11T18:08:57;23.33;;;10.70;;
18072;SDS011;9161;47.348;9.648;2022-12-11T18:13:42;26.33;;;10.50;;
18072;SDS011;9161;47.348;9.648;2022-12-11T18:18:27;25.70;;;10.10;;
18072;SDS011;9161;47.348;9.648;2022-12-11T18:23:13;20.30;;;9.17;;
18072;SDS011;9161;47.348;9.648;2022-12-11T18:27:59;21.23;;;9.77;;
18072;SDS011;9161;47.348;9.648;2022-12-11T18:32:45;23.30;;;10.27;;
18072;SDS011;9161;47.348;9.648;2022-12-11T18:37:32;20.10;;;9.00;;
18072;SDS011;9161;47.348;9.648;2022-12-11T18:42:19;17.97;;;8.40;;
18072;SDS011;9161;47.348;9.648;2022-12-11T18:47:14;23.60;;;10.33;;
18072;SDS011;9161;47.348;9.648;2022-12-11T18:51:59;24.53;;;9.03;;
18072;SDS011;9161;47.348;9.648;2022-12-11T18:56:44;26.17;;;10.20;;
18072;SDS011;9161;47.348;9.648;2022-12-11T19:01:31;18.10;;;8.77;;
18072;SDS011;9161;47.348;9.648;2022-12-11T19:06:17;19.50;;;8.90;;
18072;SDS011;9161;47.348;9.648;2022-12-11T19:11:07;23.77;;;9.63;;
18072;SDS011;9161;47.348;9.648;2022-12-11T19:15:57;24.17;;;10.03;;
18072;SDS011;9161;47.348;9.648;2022-12-11T19:20:50;29.57;;;12.30;;
18072;SDS011;9161;47.348;9.648;2022-12-11T19:25:48;25.50;;;11.13;;
18072;SDS011;9161;47.348;9.648;2022-12-11T19:30:37;30.00;;;11.90;;
18072;SDS011;9161;47.348;9.648;2022-12-11T19:35:36;24.43;;;10.23;;
18072;SDS011;9161;47.348;9.648;2022-12-11T19:40:25;20.03;;;8.33;;
18072;SDS011;9161;47.348;9.648;2022-12-11T19:45:14;19.83;;;8.40;;
18072;SDS011;9161;47.348;9.648;2022-12-11T19:50:01;18.90;;;8.13;;
18072;SDS011;9161;47.348;9.648;2022-12-11T19:54:52;24.83;;;9.63;;
18072;SDS011;9161;47.348;9.648;2022-12-11T19:59:46;28.17;;;11.07;;
18072;SDS011;9161;47.348;9.648;2022-12-11T20:04:37;27.47;;;11.13;;
18072;SDS011;9161;47.348;9.648;2022-12-11T20:09:23;27.13;;;11.53;;
18072;SDS011;9161;47.348;9.648;2022-12-11T20:14:08;26.40;;;10.80;;
18072;SDS011;9161;47.348;9.648;2022-12-11T20:19:01;24.73;;;9.77;;
18072;SDS011;9161;47.348;9.648;2022-12-11T20:23:47;19.53;;;9.47;;
18072;SDS011;9161;47.348;9.648;2022-12-11T20:28:32;19.87;;;9.53;;
18072;SDS011;9161;47.348;9.648;2022-12-11T20:33:18;28.27;;;10.03;;
18072;SDS011;9161;47.348;9.648;2022-12-11T20:38:05;24.13;;;10.03;;
18072;SDS011;9161;47.348;9.648;2022-12-11T20:42:50;25.47;;;9.83;;
18072;SDS011;9161;47.348;9.648;2022-12-11T20:47:35;23.90;;;9.37;;
18072;SDS011;9161;47.348;9.648;2022-12-11T20:52:20;27.50;;;10.37;;
18072;SDS011;9161;47.348;9.648;2022-12-11T20:57:06;21.97;;;9.30;;
18072;SDS011;9161;47.348;9.648;2022-12-11T21:01:51;23.13;;;9.07;;
18072;SDS011;9161;47.348;9.648;2022-12-11T21:06:37;24.27;;;9.67;;
18072;SDS011;9161;47.348;9.648;2022-12-11T21:11:23;18.43;;;8.13;;
18072;SDS011;9161;47.348;9.648;2022-12-11T21:16:12;19.97;;;8.70;;
18072;SDS011;9161;47.348;9.648;2022-12-11T21:20:57;24.80;;;10.43;;
18072;SDS011;9161;47.348;9.648;2022-12-11T21:25:42;23.83;;;9.93;;
18072;SDS011;9161;47.348;9.648;2022-12-11T21:30:26;18.87;;;7.93;;
18072;SDS011;9161;47.348;9.648;2022-12-11T21:35:13;18.77;;;8.13;;
18072;SDS011;9161;47.348;9.648;2022-12-11T21:39:58;19.90;;;8.40;;
18072;SDS011;9161;47.348;9.648;2022-12-11T21:44:41;17.50;;;8.20;;
18072;SDS011;9161;47.348;9.648;2022-12-11T21:49:46;21.47;;;8.73;;
18072;SDS011;9161;47.348;9.648;2022-12-11T21:54:34;17.40;;;8.07;;
18072;SDS011;9161;47.348;9.648;2022-12-11T21:59:18;17.73;;;8.03;;
18072;SDS011;9161;47.348;9.648;2022-12-11T22:04:02;19.17;;;8.00;;
18072;SDS011;9161;47.348;9.648;2022-12-11T22:08:46;22.30;;;8.73;;
18072;SDS011;9161;47.348;9.648;2022-12-11T22:13:34;29.60;;;9.30;;
18072;SDS011;9161;47.348;9.648;2022-12-11T22:18:18;16.33;;;7.17;;
18072;SDS011;9161;47.348;9.648;2022-12-11T22:23:02;21.13;;;7.97;;
18072;SDS011;9161;47.348;9.648;2022-12-11T22:27:45;18.67;;;8.40;;
18072;SDS011;9161;47.348;9.648;2022-12-11T22:32:30;24.70;;;8.57;;
18072;SDS011;9161;47.348;9.648;2022-12-11T22:37:14;25.00;;;9.10;;
18072;SDS011;9161;47.348;9.648;2022-12-11T22:41:57;20.30;;;8.00;;
18072;SDS011;9161;47.348;9.648;2022-12-11T22:46:41;19.13;;;8.60;;
18072;SDS011;9161;47.348;9.648;2022-12-11T22:51:32;27.60;;;9.47;;
18072;SDS011;9161;47.348;9.648;2022-12-11T22:56:15;24.73;;;9.60;;
18072;SDS011;9161;47.348;9.648;2022-12-11T23:00:59;21.77;;;8.37;;
18072;SDS011;9161;47.348;9.648;2022-12-11T23:05:43;18.20;;;7.77;;
18072;SDS011;9161;47.348;9.648;2022-12-11T23:10:28;19.57;;;7.70;;
18072;SDS011;9161;47.348;9.648;2022-12-11T23:15:12;18.07;;;7.57;;
18072;SDS011;9161;47.348;9.648;2022-12-11T23:19:56;17.00;;;7.30;;
18072;SDS011;9161;47.348;9.648;2022-12-11T23:24:40;17.77;;;6.97;;
18072;SDS011;9161;47.348;9.648;2022-12-11T23:29:25;18.13;;;7.30;;
18072;SDS011;9161;47.348;9.648;2022-12-11T23:34:09;21.73;;;7.67;;
18072;SDS011;9161;47.348;9.648;2022-12-11T23:38:53;15.37;;;6.37;;
18072;SDS011;9161;47.348;9.648;2022-12-11T23:43:37;13.10;;;6.13;;
18072;SDS011;9161;47.348;9.648;2022-12-11T23:48:23;15.13;;;6.50;;
18072;SDS011;9161;47.348;9.648;2022-12-11T23:53:06;18.50;;;6.63;;
18072;SDS011;9161;47.348;9.648;2022-12-11T23:57:50;17.40;;;6.50;;
